createdAt,value
2023-02-21T00:02:19.924Z,2.97
2023-02-21T00:05:05.472Z,3.93
2023-02-21T00:07:52.891Z,3.03
2023-02-21T00:10:38.402Z,2.10
2023-02-21T00:13:23.924Z,2.30
2023-02-21T00:16:09.362Z,2.93
2023-02-21T00:18:54.950Z,4.00
2023-02-21T00:21:40.860Z,2.73
2023-02-21T00:24:31.750Z,1.50
2023-02-21T00:27:17.271Z,2.83
2023-02-21T00:30:02.945Z,2.43
2023-02-21T00:32:48.265Z,2.20
2023-02-21T00:35:33.680Z,6.07
2023-02-21T00:38:19.248Z,3.53
2023-02-21T00:41:06.114Z,2.20
2023-02-21T00:43:53.346Z,2.93
2023-02-21T00:46:39.306Z,3.63
2023-02-21T00:49:25.608Z,3.43
2023-02-21T00:52:11.791Z,2.80
2023-02-21T00:54:57.490Z,2.43
2023-02-21T00:57:44.227Z,3.20
2023-02-21T01:00:34.896Z,2.40
2023-02-21T01:03:20.267Z,2.20
2023-02-21T01:06:06.547Z,2.50
2023-02-21T01:08:52.115Z,3.63
2023-02-21T01:11:39.862Z,2.50
2023-02-21T01:14:28.400Z,2.77
2023-02-21T01:17:14.075Z,3.73
2023-02-21T01:19:59.595Z,5.47
2023-02-21T01:22:45.163Z,2.87
2023-02-21T01:25:31.174Z,3.73
2023-02-21T01:28:18.069Z,4.20
2023-02-21T01:31:04.751Z,3.47
2023-02-21T01:33:54.531Z,4.57
2023-02-21T01:36:40.191Z,3.67
2023-02-21T01:39:25.641Z,3.27
2023-02-21T01:42:12.261Z,4.30
2023-02-21T01:44:59.715Z,4.50
2023-02-21T01:47:47.203Z,3.33
2023-02-21T01:50:37.218Z,3.83
2023-02-21T01:53:26.823Z,3.63
2023-02-21T01:56:14.734Z,3.93
2023-02-21T01:59:00.727Z,3.10
2023-02-21T02:01:53.586Z,3.70
2023-02-21T02:04:40.548Z,3.60
2023-02-21T02:07:26.325Z,2.30
2023-02-21T02:10:11.764Z,3.10
2023-02-21T02:13:17.873Z,2.10
2023-02-21T02:15:53.867Z,3.07
2023-02-21T02:18:50.536Z,3.10
2023-02-21T02:22:07.225Z,2.67
2023-02-21T02:25:02.358Z,2.33
2023-02-21T02:27:47.920Z,2.50
2023-02-21T02:31:07.741Z,2.53
2023-02-21T02:34:08.084Z,2.93
2023-02-21T02:36:41.862Z,6.17
2023-02-21T02:39:20.391Z,2.97
2023-02-21T02:41:56.580Z,2.80
2023-02-21T02:44:30.912Z,3.17
2023-02-21T02:47:03.127Z,2.80
2023-02-21T02:49:33.902Z,2.33
2023-02-21T02:52:07.784Z,4.37
2023-02-21T02:54:35.786Z,4.73
2023-02-21T02:57:10.385Z,4.43
2023-02-21T02:59:41.933Z,2.47
2023-02-21T03:02:38.524Z,4.57
2023-02-21T03:05:30.495Z,3.63
2023-02-21T03:08:06.485Z,2.67
2023-02-21T03:10:41.916Z,2.10
2023-02-21T03:13:18.832Z,3.27
2023-02-21T03:15:50.731Z,2.77
2023-02-21T03:18:24.909Z,3.30
2023-02-21T03:20:57.041Z,4.40
2023-02-21T03:23:28.618Z,2.57
2023-02-21T03:26:00.120Z,4.83
2023-02-21T03:28:29.673Z,5.40
2023-02-21T03:31:00.501Z,2.77
2023-02-21T03:33:30.590Z,4.53
2023-02-21T03:36:01.310Z,4.60
2023-02-21T03:38:31.426Z,3.63
2023-02-21T03:40:59.648Z,4.03
2023-02-21T03:43:27.880Z,3.47
2023-02-21T03:46:01.009Z,4.23
2023-02-21T03:48:32.496Z,4.33
2023-02-21T03:51:09.515Z,5.40
2023-02-21T03:53:39.661Z,3.20
2023-02-21T03:56:09.631Z,5.83
2023-02-21T03:59:02.174Z,3.90
2023-02-21T04:01:30.325Z,4.13
2023-02-21T04:03:58.382Z,4.00
2023-02-21T04:06:27.792Z,3.97
2023-02-21T04:08:58.057Z,3.30
2023-02-21T04:11:27.441Z,5.50
2023-02-21T04:13:55.422Z,3.63
2023-02-21T04:16:24.319Z,3.70
2023-02-21T04:18:54.187Z,4.37
2023-02-21T04:21:22.292Z,3.03
2023-02-21T04:23:52.379Z,3.73
2023-02-21T04:26:23.900Z,3.43
2023-02-21T04:28:53.641Z,3.73
2023-02-21T04:31:21.562Z,4.93
2023-02-21T04:33:59.512Z,3.23
2023-02-21T04:36:34.486Z,2.80
2023-02-21T04:39:02.411Z,3.60
2023-02-21T04:41:31.666Z,4.37
2023-02-21T04:43:59.662Z,4.00
2023-02-21T04:46:27.893Z,2.50
2023-02-21T04:48:55.910Z,4.93
2023-02-21T04:51:25.970Z,4.20
2023-02-21T04:53:55.313Z,3.10
2023-02-21T04:56:25.383Z,6.53
2023-02-21T04:58:54.809Z,3.97
2023-02-21T05:01:23.582Z,3.93
2023-02-21T05:03:51.573Z,4.63
2023-02-21T05:06:20.767Z,2.80
2023-02-21T05:08:49.144Z,2.60
2023-02-21T05:11:17.968Z,3.47
2023-02-21T05:13:46.295Z,3.93
2023-02-21T05:16:16.402Z,4.67
2023-02-21T05:18:45.341Z,3.73
2023-02-21T05:21:13.633Z,3.73
2023-02-21T05:23:43.006Z,2.77
2023-02-21T05:26:13.699Z,4.53
2023-02-21T05:28:42.825Z,4.87
2023-02-21T05:31:10.929Z,3.63
2023-02-21T05:33:40.365Z,5.30
2023-02-21T05:36:08.893Z,6.53
2023-02-21T05:38:46.112Z,2.83
2023-02-21T05:41:15.319Z,4.27
2023-02-21T05:43:45.176Z,3.80
2023-02-21T05:46:21.789Z,2.87
2023-02-21T05:48:51.222Z,4.13
2023-02-21T05:51:19.766Z,5.30
2023-02-21T05:53:47.839Z,2.97
2023-02-21T05:56:16.197Z,2.47
2023-02-21T05:58:44.518Z,2.70
2023-02-21T06:01:12.661Z,3.83
2023-02-21T06:03:40.745Z,2.93
2023-02-21T06:06:10.077Z,3.23
2023-02-21T06:08:44.753Z,3.97
2023-02-21T06:11:13.345Z,3.57
2023-02-21T06:13:42.528Z,4.10
2023-02-21T06:16:10.670Z,3.93
2023-02-21T06:18:38.625Z,7.13
2023-02-21T06:21:08.664Z,5.93
2023-02-21T06:23:36.494Z,5.33
2023-02-21T06:26:04.879Z,6.73
2023-02-21T06:28:32.897Z,12.37
2023-02-21T06:31:00.847Z,7.57
2023-02-21T06:33:28.776Z,6.03
2023-02-21T06:35:56.948Z,5.13
2023-02-21T06:38:26.204Z,5.03
2023-02-21T06:40:54.102Z,6.20
2023-02-21T06:43:22.168Z,7.10
2023-02-21T06:45:50.013Z,6.73
2023-02-21T06:48:18.156Z,11.07
2023-02-21T06:50:46.223Z,5.57
2023-02-21T06:53:14.077Z,7.43
2023-02-21T06:55:43.547Z,4.67
2023-02-21T06:58:11.756Z,6.60
2023-02-21T07:00:39.768Z,7.23
2023-02-21T07:03:07.696Z,6.60
2023-02-21T07:05:37.624Z,6.40
2023-02-21T07:08:06.307Z,3.97
2023-02-21T07:10:34.204Z,7.47
2023-02-21T07:13:03.445Z,5.93
2023-02-21T07:15:31.527Z,7.10
2023-02-21T07:17:59.661Z,8.53
2023-02-21T07:20:27.829Z,11.63
2023-02-21T07:22:56.173Z,9.83
2023-02-21T07:25:24.786Z,8.50
2023-02-21T07:27:53.717Z,10.07
2023-02-21T07:30:23.611Z,8.20
2023-02-21T07:32:51.568Z,8.27
2023-02-21T07:35:19.646Z,8.60
2023-02-21T07:37:47.601Z,7.70
2023-02-21T07:40:15.531Z,7.93
2023-02-21T07:42:44.549Z,4.10
2023-02-21T07:45:13.242Z,4.20
2023-02-21T07:47:43.853Z,2.73
2023-02-21T07:50:12.163Z,4.73
2023-02-21T07:52:40.108Z,6.37
2023-02-21T07:55:08.770Z,8.80
2023-02-21T07:57:36.670Z,8.97
2023-02-21T08:00:05.392Z,19.17
2023-02-21T08:02:42.321Z,10.50
2023-02-21T08:05:10.823Z,8.47
2023-02-21T08:07:38.701Z,6.40
2023-02-21T08:10:07.235Z,6.60
2023-02-21T08:12:35.152Z,7.07
2023-02-21T08:15:03.777Z,8.03
2023-02-21T08:17:31.831Z,18.43
2023-02-21T08:20:01.378Z,14.23
2023-02-21T08:22:29.270Z,13.00
2023-02-21T08:24:57.159Z,13.83
2023-02-21T08:27:46.583Z,11.77
2023-02-21T08:30:17.577Z,9.17
2023-02-21T08:32:48.235Z,8.40
2023-02-21T08:35:19.278Z,9.07
2023-02-21T08:37:47.897Z,13.17
2023-02-21T08:40:17.430Z,11.77
2023-02-21T08:42:49.274Z,7.40
2023-02-21T08:45:18.158Z,13.67
2023-02-21T08:47:46.608Z,11.90
2023-02-21T08:50:15.001Z,10.30
2023-02-21T08:52:46.524Z,8.87
2023-02-21T08:55:14.720Z,13.33
2023-02-21T08:57:42.896Z,7.33
2023-02-21T09:00:14.437Z,16.23
2023-02-21T09:02:42.674Z,7.57
2023-02-21T09:05:12.121Z,13.83
2023-02-21T09:07:40.161Z,9.60
2023-02-21T09:10:10.696Z,9.93
2023-02-21T09:12:39.040Z,7.67
2023-02-21T09:15:07.625Z,10.23
2023-02-21T09:17:35.991Z,11.77
2023-02-21T09:20:06.536Z,7.17
2023-02-21T09:22:34.638Z,7.37
2023-02-21T09:25:03.344Z,8.40
2023-02-21T09:27:38.513Z,5.60
2023-02-21T09:30:08.486Z,11.60
2023-02-21T09:32:36.593Z,8.23
2023-02-21T09:35:05.280Z,10.67
2023-02-21T09:37:33.568Z,7.47
2023-02-21T09:40:01.805Z,7.53
2023-02-21T09:42:33.095Z,7.13
2023-02-21T09:45:03.149Z,7.20
2023-02-21T09:47:37.306Z,5.33
2023-02-21T09:50:08.060Z,6.37
2023-02-21T09:52:38.914Z,7.03
2023-02-21T09:55:10.187Z,7.57
2023-02-21T09:57:39.474Z,8.00
2023-02-21T10:00:18.557Z,6.60
2023-02-21T10:02:58.005Z,10.03
2023-02-21T10:05:47.272Z,6.73
2023-02-21T10:08:26.753Z,8.87
2023-02-21T10:10:58.454Z,8.33
2023-02-21T10:13:40.629Z,10.17
2023-02-21T10:16:14.129Z,3.67
2023-02-21T10:18:46.202Z,5.17
2023-02-21T10:21:23.143Z,6.80
2023-02-21T10:23:54.561Z,8.63
2023-02-21T10:26:27.256Z,4.10
2023-02-21T10:28:57.845Z,4.47
2023-02-21T10:31:31.014Z,7.57
2023-02-21T10:33:59.882Z,6.33
2023-02-21T10:36:28.746Z,5.70
2023-02-21T10:39:00.619Z,8.10
2023-02-21T10:41:31.159Z,4.90
2023-02-21T10:44:05.217Z,6.20
2023-02-21T10:46:39.243Z,7.87
2023-02-21T10:49:22.361Z,6.20
2023-02-21T10:52:05.631Z,8.27
2023-02-21T10:54:35.431Z,8.00
2023-02-21T10:57:05.345Z,7.43
2023-02-21T10:59:37.611Z,8.27
2023-02-21T11:02:33.167Z,8.37
2023-02-21T11:05:15.064Z,6.67
2023-02-21T11:07:43.793Z,7.03
2023-02-21T11:10:33.657Z,8.23
2023-02-21T11:13:23.427Z,10.37
2023-02-21T11:16:11.047Z,7.43
2023-02-21T11:18:38.986Z,8.07
2023-02-21T11:21:14.368Z,11.30
2023-02-21T11:23:48.485Z,8.03
2023-02-21T11:26:16.989Z,8.37
2023-02-21T11:28:47.890Z,5.57
2023-02-21T11:31:29.117Z,5.87
2023-02-21T11:34:00.487Z,7.33
2023-02-21T11:36:30.668Z,8.40
2023-02-21T11:39:05.350Z,6.77
2023-02-21T11:41:38.800Z,5.13
2023-02-21T11:44:25.513Z,10.83
2023-02-21T11:47:14.010Z,5.00
2023-02-21T11:49:52.511Z,9.50
2023-02-21T11:52:25.561Z,7.37
2023-02-21T11:54:53.572Z,7.90
2023-02-21T11:57:30.213Z,5.43
2023-02-21T12:00:08.238Z,4.80
2023-02-21T12:03:04.660Z,6.53
2023-02-21T12:05:44.359Z,4.57
2023-02-21T12:08:30.185Z,3.23
2023-02-21T12:11:06.150Z,4.83
2023-02-21T12:13:42.040Z,4.10
2023-02-21T12:16:22.707Z,5.00
2023-02-21T12:19:07.847Z,4.90
2023-02-21T12:21:56.701Z,6.03
2023-02-21T12:24:53.473Z,5.00
2023-02-21T12:27:29.011Z,4.07
2023-02-21T12:30:27.169Z,8.07
2023-02-21T12:33:04.216Z,5.83
2023-02-21T12:36:12.596Z,7.07
2023-02-21T12:38:52.880Z,6.73
2023-02-21T12:41:42.061Z,6.40
2023-02-21T12:44:15.478Z,6.40
2023-02-21T12:46:51.974Z,4.33
2023-02-21T12:49:24.785Z,5.17
2023-02-21T12:52:00.471Z,4.47
2023-02-21T12:54:39.298Z,3.47
2023-02-21T12:57:12.334Z,5.33
2023-02-21T12:59:51.061Z,5.87
2023-02-21T13:02:26.533Z,4.97
2023-02-21T13:04:58.965Z,4.53
2023-02-21T13:07:35.426Z,5.50
2023-02-21T13:10:07.988Z,4.43
2023-02-21T13:12:41.773Z,5.00
2023-02-21T13:15:20.369Z,4.50
2023-02-21T13:17:57.471Z,6.27
2023-02-21T13:20:28.812Z,3.47
2023-02-21T13:23:52.091Z,3.20
2023-02-21T13:26:53.802Z,3.30
2023-02-21T13:29:26.381Z,4.90
2023-02-21T13:32:01.048Z,4.07
2023-02-21T13:34:31.913Z,2.93
2023-02-21T13:37:05.889Z,3.50
2023-02-21T13:39:37.574Z,4.13
2023-02-21T13:42:11.236Z,5.73
2023-02-21T13:44:43.213Z,3.10
2023-02-21T13:47:15.354Z,3.50
2023-02-21T13:49:48.532Z,3.67
2023-02-21T13:52:34.897Z,3.30
2023-02-21T13:55:33.045Z,3.80
2023-02-21T13:58:46.528Z,4.30
2023-02-21T14:01:47.557Z,4.80
2023-02-21T14:05:03.882Z,2.33
2023-02-21T14:07:58.098Z,3.93
2023-02-21T14:10:37.913Z,7.43
2023-02-21T14:13:08.586Z,2.37
2023-02-21T14:15:43.584Z,3.83
2023-02-21T14:18:25.572Z,4.00
2023-02-21T14:20:56.899Z,5.87
2023-02-21T14:23:32.859Z,4.13
2023-02-21T14:26:02.255Z,2.03
2023-02-21T14:29:02.472Z,4.13
2023-02-21T14:31:53.131Z,6.13
2023-02-21T14:34:31.771Z,3.73
2023-02-21T14:37:03.370Z,2.80
2023-02-21T14:39:37.395Z,2.23
2023-02-21T14:42:20.223Z,4.80
2023-02-21T14:45:08.801Z,4.77
2023-02-21T14:47:52.701Z,3.40
2023-02-21T14:50:32.739Z,3.80
2023-02-21T14:53:25.715Z,4.63
2023-02-21T14:56:29.183Z,3.70
2023-02-21T14:59:28.298Z,7.80
2023-02-21T15:02:02.468Z,4.23
2023-02-21T15:04:38.181Z,5.10
2023-02-21T15:07:18.668Z,4.63
2023-02-21T15:10:06.666Z,2.80
2023-02-21T15:12:37.673Z,4.68
2023-02-21T15:15:06.362Z,3.95
2023-02-21T15:17:34.420Z,4.07
2023-02-21T15:20:06.346Z,3.83
2023-02-21T15:22:35.625Z,2.70
2023-02-21T15:25:22.549Z,3.25
2023-02-21T15:28:02.363Z,3.70
2023-02-21T15:30:37.882Z,4.50
2023-02-21T15:33:14.765Z,4.32
2023-02-21T15:35:46.825Z,3.60
2023-02-21T15:38:23.282Z,5.63
2023-02-21T15:40:55.602Z,3.87
2023-02-21T15:43:30.125Z,9.53
2023-02-21T15:46:01.386Z,5.37
2023-02-21T15:48:29.875Z,4.57
2023-02-21T15:51:03.973Z,4.57
2023-02-21T15:53:33.625Z,3.60
2023-02-21T15:56:20.320Z,4.63
2023-02-21T15:59:10.110Z,5.60
2023-02-21T16:01:38.649Z,4.03
2023-02-21T16:04:21.415Z,3.50
2023-02-21T16:06:53.240Z,3.30
2023-02-21T16:09:30.911Z,4.77
2023-02-21T16:12:04.416Z,6.43
2023-02-21T16:14:40.613Z,5.20
2023-02-21T16:17:28.400Z,3.47
2023-02-21T16:19:58.956Z,4.87
2023-02-21T16:22:54.161Z,3.67
2023-02-21T16:25:25.961Z,6.10
2023-02-21T16:27:55.678Z,3.03
2023-02-21T16:30:25.847Z,6.60
2023-02-21T16:32:55.738Z,6.33
2023-02-21T16:35:25.831Z,4.57
2023-02-21T16:37:56.078Z,5.83
2023-02-21T16:40:26.949Z,6.50
2023-02-21T16:42:56.433Z,4.83
2023-02-21T16:45:25.078Z,7.47
2023-02-21T16:48:01.445Z,5.57
2023-02-21T16:50:32.112Z,7.10
2023-02-21T16:53:01.280Z,8.03
2023-02-21T16:55:31.267Z,8.73
2023-02-21T16:58:02.485Z,6.93
2023-02-21T17:00:32.024Z,9.33
2023-02-21T17:03:00.607Z,8.47
2023-02-21T17:05:29.161Z,5.50
2023-02-21T17:07:58.577Z,8.50
2023-02-21T17:10:26.564Z,9.47
2023-02-21T17:12:55.872Z,7.63
2023-02-21T17:15:23.960Z,8.67
2023-02-21T17:17:53.873Z,9.80
2023-02-21T17:20:22.840Z,9.20
2023-02-21T17:22:51.167Z,6.27
2023-02-21T17:25:20.208Z,7.37
2023-02-21T17:27:48.794Z,8.03
2023-02-21T17:30:19.337Z,6.77
2023-02-21T17:32:47.967Z,5.40
2023-02-21T17:35:16.761Z,4.90
2023-02-21T17:37:45.747Z,5.70
2023-02-21T17:40:14.022Z,3.50
2023-02-21T17:42:42.189Z,2.97
2023-02-21T17:45:11.053Z,4.30
2023-02-21T17:47:40.340Z,2.43
2023-02-21T17:50:09.021Z,3.13
2023-02-21T17:52:36.926Z,2.13
2023-02-21T17:55:07.920Z,4.13
2023-02-21T17:57:37.771Z,3.17
2023-02-21T18:00:09.889Z,5.50
2023-02-21T18:02:38.000Z,7.23
2023-02-21T18:05:09.392Z,3.93
2023-02-21T18:07:37.306Z,2.77
2023-02-21T18:10:06.654Z,3.20
2023-02-21T18:12:34.730Z,6.63
2023-02-21T18:15:03.347Z,4.73
2023-02-21T18:17:31.254Z,4.97
2023-02-21T18:19:59.268Z,4.07
2023-02-21T18:22:28.537Z,4.27
2023-02-21T18:24:56.469Z,4.30
2023-02-21T18:27:24.527Z,10.13
2023-02-21T18:29:55.842Z,4.67
2023-02-21T18:32:24.224Z,7.13
2023-02-21T18:34:52.224Z,3.83
2023-02-21T18:37:20.578Z,6.40
2023-02-21T18:39:52.317Z,5.93
2023-02-21T18:42:21.227Z,5.93
2023-02-21T18:44:49.271Z,13.43
2023-02-21T18:47:19.145Z,8.60
2023-02-21T18:49:48.047Z,4.53
2023-02-21T18:52:16.671Z,4.40
2023-02-21T18:54:45.652Z,5.10
2023-02-21T18:57:14.925Z,4.10
2023-02-21T18:59:43.076Z,6.77
2023-02-21T19:02:14.608Z,6.70
2023-02-21T19:04:43.806Z,5.13
2023-02-21T19:07:13.871Z,6.83
2023-02-21T19:09:42.340Z,5.60
2023-02-21T19:12:10.248Z,6.43
2023-02-21T19:14:39.926Z,6.93
2023-02-21T19:17:09.271Z,4.50
2023-02-21T19:19:37.204Z,7.43
2023-02-21T19:22:05.592Z,9.97
2023-02-21T19:24:33.593Z,6.77
2023-02-21T19:27:01.740Z,4.47
2023-02-21T19:29:29.664Z,10.10
2023-02-21T19:31:59.142Z,6.17
2023-02-21T19:34:27.045Z,6.07
2023-02-21T19:36:55.032Z,5.50
2023-02-21T19:39:22.854Z,3.77
2023-02-21T19:41:50.766Z,4.63
2023-02-21T19:44:19.004Z,5.23
2023-02-21T19:46:47.303Z,5.63
2023-02-21T19:49:18.453Z,6.70
2023-02-21T19:51:47.646Z,6.40
2023-02-21T19:54:16.950Z,6.07
2023-02-21T19:56:44.944Z,8.07
2023-02-21T19:59:13.454Z,7.00
2023-02-21T20:01:41.355Z,7.97
2023-02-21T20:04:09.745Z,4.30
2023-02-21T20:06:39.266Z,5.67
2023-02-21T20:09:10.319Z,6.77
2023-02-21T20:11:40.280Z,6.43
2023-02-21T20:14:08.590Z,5.67
2023-02-21T20:16:39.953Z,7.50
2023-02-21T20:19:09.007Z,5.13
2023-02-21T20:21:39.746Z,4.90
2023-02-21T20:24:08.103Z,6.73
2023-02-21T20:26:36.046Z,5.40
2023-02-21T20:29:04.501Z,7.00
2023-02-21T20:31:33.632Z,3.97
2023-02-21T20:34:02.777Z,7.20
2023-02-21T20:36:33.017Z,6.33
2023-02-21T20:39:04.318Z,5.13
2023-02-21T20:41:34.078Z,5.47
2023-02-21T20:44:02.307Z,6.13
2023-02-21T20:46:30.204Z,5.73
2023-02-21T20:48:58.913Z,5.13
2023-02-21T20:51:32.366Z,8.80
2023-02-21T20:54:01.966Z,8.23
2023-02-21T20:56:33.862Z,4.83
2023-02-21T20:59:02.707Z,6.67
2023-02-21T21:01:30.645Z,9.63
2023-02-21T21:03:58.721Z,6.60
2023-02-21T21:06:27.016Z,6.70
2023-02-21T21:08:55.325Z,7.63
2023-02-21T21:11:25.801Z,5.87
2023-02-21T21:13:53.718Z,8.63
2023-02-21T21:16:22.017Z,8.03
2023-02-21T21:18:51.279Z,8.07
2023-02-21T21:21:20.712Z,6.00
2023-02-21T21:23:48.662Z,8.93
2023-02-21T21:26:16.960Z,5.60
2023-02-21T21:28:46.579Z,5.67
2023-02-21T21:31:14.846Z,8.63
2023-02-21T21:33:43.045Z,7.63
2023-02-21T21:36:11.804Z,6.87
2023-02-21T21:38:40.762Z,10.23
2023-02-21T21:41:13.668Z,8.30
2023-02-21T21:43:43.529Z,6.73
2023-02-21T21:46:13.803Z,7.93
2023-02-21T21:48:43.524Z,7.70
2023-02-21T21:51:14.025Z,7.97
2023-02-21T21:53:42.563Z,9.73
2023-02-21T21:56:11.316Z,7.63
2023-02-21T21:58:39.287Z,8.40
2023-02-21T22:01:07.310Z,8.13
2023-02-21T22:03:36.616Z,8.37
2023-02-21T22:06:04.723Z,11.20
2023-02-21T22:08:32.925Z,7.13
2023-02-21T22:11:01.034Z,9.93
2023-02-21T22:13:30.109Z,8.00
2023-02-21T22:15:58.766Z,6.80
2023-02-21T22:18:26.759Z,9.70
2023-02-21T22:20:56.548Z,6.80
2023-02-21T22:23:25.054Z,7.80
2023-02-21T22:25:53.420Z,10.80
2023-02-21T22:28:21.369Z,7.53
2023-02-21T22:30:50.437Z,9.60
2023-02-21T22:33:21.356Z,6.30
2023-02-21T22:35:49.782Z,8.87
2023-02-21T22:38:19.216Z,11.00
2023-02-21T22:40:47.520Z,6.50
2023-02-21T22:43:17.742Z,6.63
2023-02-21T22:45:49.651Z,9.17
2023-02-21T22:48:20.515Z,6.73
2023-02-21T22:50:49.855Z,7.80
2023-02-21T22:53:21.131Z,12.17
2023-02-21T22:55:52.191Z,9.93
2023-02-21T22:58:21.611Z,8.90
2023-02-21T23:00:50.538Z,6.20
2023-02-21T23:03:18.432Z,7.20
2023-02-21T23:05:49.408Z,6.70
2023-02-21T23:08:20.958Z,7.57
2023-02-21T23:10:50.090Z,10.03
2023-02-21T23:13:26.036Z,9.47
2023-02-21T23:15:57.351Z,9.83
2023-02-21T23:18:26.268Z,6.60
2023-02-21T23:20:56.436Z,6.60
2023-02-21T23:23:28.113Z,7.70
2023-02-21T23:25:58.724Z,6.97
2023-02-21T23:28:28.669Z,8.83
2023-02-21T23:30:59.761Z,6.80
2023-02-21T23:33:29.632Z,7.13
2023-02-21T23:35:58.541Z,7.27
2023-02-21T23:38:28.768Z,8.20
2023-02-21T23:40:58.560Z,5.87
2023-02-21T23:43:29.381Z,8.10
2023-02-21T23:45:58.387Z,6.53
2023-02-21T23:48:26.568Z,5.80
2023-02-21T23:50:58.048Z,7.10
2023-02-21T23:53:31.779Z,8.30
2023-02-21T23:56:00.582Z,10.77
2023-02-21T23:58:32.409Z,5.97
